Time;durP1;ratioP1;P1;durP2;ratioP2;P2;SDS_P1;SDS_P2;PMS_P1;PMS_P2;Temp;Humidity;BMP_temperature;BMP_pressure;BME280_temperature;BME280_humidity;BME280_pressure;Samples;Min_cycle;Max_cycle;Signal;HPM_P1;HPM_P2
2022/05/30 00:01:11;;;;;;;11.13;3.25;;;;;;;8.01;80.60;100112.56;10343162;28;20123;-77
2022/05/30 00:06:17;;;;;;;11.30;3.83;;;;;;;7.80;80.72;100107.00;10354655;28;20084;-77
2022/05/30 00:11:22;;;;;;;12.15;3.10;;;;;;;7.45;81.20;100107.75;10338912;28;20083;-77
2022/05/30 00:16:25;;;;;;;5.78;3.03;;;;;;;7.66;81.09;100110.69;10353473;28;20188;-77
2022/05/30 00:21:28;;;;;;;8.63;3.15;;;;;;;7.77;80.96;100105.41;10380372;28;20060;-77
2022/05/30 00:26:32;;;;;;;;;;;;;;;7.78;81.19;100106.25;10381430;28;20147;-77
2022/05/30 00:31:36;;;;;;;6.53;2.78;;;;;;;7.63;80.80;100098.41;10364290;28;19932;-76
2022/05/30 00:36:39;;;;;;;7.07;2.97;;;;;;;7.87;81.14;100089.50;10338089;28;20521;-77
2022/05/30 00:41:43;;;;;;;15.73;3.38;;;;;;;7.88;80.88;100097.44;10337325;28;20583;-77
2022/05/30 00:46:46;;;;;;;10.43;2.65;;;;;;;7.84;80.35;100089.75;10340134;28;20052;-77
2022/05/30 00:51:53;;;;;;;11.40;3.38;;;;;;;7.72;79.93;100095.03;10341052;28;20471;-77
2022/05/30 00:57:00;;;;;;;8.93;2.47;;;;;;;7.66;79.77;100078.59;10340751;28;20058;-76
2022/05/30 01:02:07;;;;;;;14.48;3.10;;;;;;;7.68;80.08;100101.59;10340821;28;20049;-77
2022/05/30 01:07:11;;;;;;;7.80;3.05;;;;;;;7.74;80.34;100089.59;10367336;28;20049;-77
2022/05/30 01:12:15;;;;;;;12.63;3.08;;;;;;;7.69;79.88;100084.56;10374649;28;20081;-77
2022/05/30 01:17:20;;;;;;;10.13;3.25;;;;;;;7.65;79.99;100080.44;10335692;28;20052;-77
2022/05/30 01:22:56;;;;;;;12.07;4.30;;;;;;;7.58;79.70;100087.19;10333397;28;20042;-77
2022/05/30 01:28:10;;;;;;;11.68;3.10;;;;;;;7.41;79.93;100076.88;10336962;28;20054;-77
2022/05/30 01:33:18;;;;;;;8.48;3.35;;;;;;;7.09;79.98;100084.53;10335177;28;20594;-77
2022/05/30 01:38:23;;;;;;;11.77;4.00;;;;;;;7.13;79.89;100081.53;10374409;28;21259;-77
2022/05/30 01:43:29;;;;;;;10.55;3.45;;;;;;;7.04;79.95;100077.69;10377709;28;20069;-77
2022/05/30 01:48:40;;;;;;;12.52;3.65;;;;;;;7.09;79.91;100073.84;10375003;28;20096;-77
2022/05/30 01:53:43;;;;;;;16.38;3.45;;;;;;;7.00;80.28;100070.03;10362001;28;20052;-77
2022/05/30 01:59:05;;;;;;;7.32;3.65;;;;;;;6.99;80.20;100065.63;10341587;28;20152;-77
2022/05/30 02:04:18;;;;;;;10.45;3.97;;;;;;;6.92;79.82;100069.72;10376377;28;20549;-78
2022/05/30 02:09:22;;;;;;;10.52;4.22;;;;;;;6.82;79.88;100069.47;10373070;28;21287;-78
2022/05/30 02:14:25;;;;;;;11.18;4.47;;;;;;;6.94;80.09;100070.44;10336019;28;21141;-77
2022/05/30 02:19:31;;;;;;;10.70;5.10;;;;;;;7.01;80.04;100075.25;10335606;28;20129;-77
2022/05/30 02:24:39;;;;;;;9.32;4.30;;;;;;;7.03;79.99;100072.47;10332840;28;20045;-77
2022/05/30 02:29:43;;;;;;;15.52;5.60;;;;;;;7.18;80.42;100083.88;10334890;28;20050;-77
2022/05/30 02:40:23;;;;;;;6.47;4.63;;;;;;;7.06;80.43;100075.78;10219362;28;20045;-77
2022/05/30 02:45:58;;;;;;;19.20;4.85;;;;;;;7.16;80.69;100075.97;10302415;28;20439;-77
2022/05/30 02:51:03;;;;;;;9.65;5.47;;;;;;;7.27;80.34;100080.56;10336998;28;20045;-77
2022/05/30 02:56:08;;;;;;;11.52;5.80;;;;;;;7.23;80.42;100073.72;10359872;28;20092;-77
2022/05/30 03:01:11;;;;;;;10.13;4.57;;;;;;;7.16;80.27;100075.09;10333623;28;20053;-77
2022/05/30 03:06:16;;;;;;;11.00;5.18;;;;;;;7.31;80.14;100081.19;10333557;28;20121;-77
2022/05/30 03:11:19;;;;;;;16.70;5.70;;;;;;;7.31;80.18;100083.84;10345152;28;20057;-77
2022/05/30 03:16:22;;;;;;;11.52;5.82;;;;;;;7.37;79.81;100092.25;10384196;28;20049;-78
2022/05/30 03:21:27;;;;;;;13.35;5.55;;;;;;;7.30;80.04;100085.69;10375931;28;20490;-78
2022/05/30 03:26:31;;;;;;;15.20;5.32;;;;;;;7.39;79.96;100094.84;10372539;28;20057;-78
2022/05/30 03:31:34;;;;;;;13.68;5.25;;;;;;;7.37;79.74;100094.94;10380442;28;20046;-77
2022/05/30 03:36:39;;;;;;;15.90;5.07;;;;;;;7.22;79.80;100086.22;10383120;28;20061;-77
2022/05/30 03:42:13;;;;;;;13.07;5.30;;;;;;;7.15;80.30;100095.63;10379162;28;20065;-77
2022/05/30 03:47:28;;;;;;;13.57;6.10;;;;;;;7.26;79.85;100103.72;10359240;28;20054;-78
2022/05/30 03:52:33;;;;;;;12.68;5.60;;;;;;;7.40;79.57;100101.88;10339830;28;20128;-78
2022/05/30 03:57:36;;;;;;;13.73;5.88;;;;;;;7.52;79.26;100103.69;10343234;28;20048;-78
2022/05/30 04:02:39;;;;;;;16.95;5.85;;;;;;;7.63;79.36;100106.41;10380255;28;20123;-77
2022/05/30 04:07:44;;;;;;;13.07;5.57;;;;;;;7.65;79.61;100106.28;10380936;28;20061;-77
2022/05/30 04:13:16;;;;;;;13.10;5.18;;;;;;;7.76;79.46;100100.16;10353587;28;20537;-77
2022/05/30 04:18:40;;;;;;;15.18;5.45;;;;;;;7.76;79.45;100105.50;10389261;28;20130;-77
2022/05/30 04:23:45;;;;;;;13.07;6.07;;;;;;;7.80;79.00;100096.31;10361147;28;20529;-77
2022/05/30 04:28:54;;;;;;;9.50;5.00;;;;;;;7.69;78.95;100097.09;10336487;28;20046;-78
2022/05/30 04:34:15;;;;;;;11.15;4.82;;;;;;;7.77;78.77;100107.22;10363324;28;20591;-78
2022/05/30 04:39:20;;;;;;;14.30;5.85;;;;;;;7.86;78.62;100095.84;10376961;28;20049;-77
2022/05/30 04:44:31;;;;;;;22.98;7.18;;;;;;;7.95;78.87;100100.50;10365657;28;20122;-77
2022/05/30 04:50:04;;;;;;;17.65;6.70;;;;;;;8.30;80.02;100099.66;10342948;28;20042;-77
2022/05/30 04:55:13;;;;;;;15.75;6.40;;;;;;;8.46;79.34;100108.28;10375798;28;20117;-78
2022/05/30 05:00:24;;;;;;;15.30;6.63;;;;;;;8.56;79.70;100106.59;10361820;28;20096;-77
2022/05/30 05:05:27;;;;;;;10.80;6.35;;;;;;;8.43;78.25;100115.66;10376518;28;20044;-78
2022/05/30 05:10:48;;;;;;;10.32;6.32;;;;;;;8.47;78.53;100109.97;10370932;28;20042;-77
2022/05/30 05:15:56;;;;;;;16.17;7.68;;;;;;;8.79;79.00;100109.31;10354894;28;20053;-77
2022/05/30 05:21:03;;;;;;;17.65;6.70;;;;;;;8.86;78.10;100112.34;10351836;28;20073;-77
2022/05/30 05:26:10;;;;;;;15.63;6.45;;;;;;;9.09;78.48;100115.91;10369741;28;20418;-77
2022/05/30 05:31:42;;;;;;;7.43;5.13;;;;;;;8.81;76.86;100124.28;10360362;28;20463;-77
2022/05/30 05:36:47;;;;;;;13.45;6.50;;;;;;;9.04;77.10;100130.53;10349436;28;20057;-77
2022/05/30 05:41:51;;;;;;;12.18;6.25;;;;;;;9.14;76.80;100125.31;10356187;28;20121;-77
2022/05/30 05:46:58;;;;;;;13.73;6.18;;;;;;;9.27;76.03;100134.06;10379312;28;20459;-77
2022/05/30 05:52:06;;;;;;;15.65;6.13;;;;;;;9.90;77.49;100133.50;10366487;28;20406;-77
2022/05/30 05:57:11;;;;;;;13.43;4.80;;;;;;;9.90;73.47;100131.72;10364452;28;20474;-77
2022/05/30 06:02:17;;;;;;;13.20;4.53;;;;;;;9.65;71.77;100130.16;10358672;28;20064;-77
2022/05/30 06:07:21;;;;;;;11.85;4.38;;;;;;;9.60;71.19;100136.81;10360545;28;20510;-77
2022/05/30 06:12:48;;;;;;;15.65;4.78;;;;;;;10.51;72.95;100136.47;10357778;28;20128;-77
2022/05/30 06:17:52;;;;;;;13.10;4.78;;;;;;;10.32;69.82;100139.84;10360938;28;20794;-77
2022/05/30 06:22:55;;;;;;;9.25;4.18;;;;;;;10.91;72.26;100133.03;10355842;28;20643;-77
2022/05/30 06:28:19;;;;;;;11.35;4.05;;;;;;;11.42;72.53;100132.19;10352088;28;20050;-76
2022/05/30 06:33:36;;;;;;;7.07;2.55;;;;;;;10.97;65.51;100132.53;10364100;28;20049;-78
2022/05/30 06:38:43;;;;;;;6.35;2.03;;;;;;;11.17;71.50;100129.97;10357715;28;20056;-78
2022/05/30 06:44:00;;;;;;;7.65;2.20;;;;;;;11.96;69.69;100140.84;10370531;28;20050;-77
2022/05/30 06:49:22;;;;;;;6.80;1.73;;;;;;;11.79;62.37;100146.88;10357123;28;20057;-78
2022/05/30 06:54:28;;;;;;;9.95;1.83;;;;;;;11.38;66.09;100149.59;10375214;28;20042;-77
2022/05/30 06:59:33;;;;;;;;;;;;;;;11.48;59.45;100145.06;10356800;28;20053;-77
2022/05/30 07:04:37;;;;;;;10.80;2.03;;;;;;;11.80;61.81;100145.91;10363409;28;20024;-77
2022/05/30 07:10:11;;;;;;;7.82;1.58;;;;;;;11.80;60.09;100148.59;10303036;28;20160;-78
2022/05/30 07:15:25;;;;;;;8.52;1.52;;;;;;;12.34;62.43;100155.31;10360367;28;20588;-77
2022/05/30 07:20:29;;;;;;;4.68;1.20;;;;;;;12.56;57.89;100157.75;10364854;28;20046;-77
2022/05/30 07:25:57;;;;;;;8.02;2.22;;;;;;;13.06;62.51;100154.00;10361090;28;20185;-78
2022/05/30 07:31:39;;;;;;;8.70;1.92;;;;;;;12.96;55.13;100154.00;10361423;28;20062;-78
2022/05/30 07:37:01;;;;;;;4.55;1.20;;;;;;;12.79;54.36;100154.75;10361338;28;20050;-77
2022/05/30 07:42:30;;;;;;;5.78;1.60;;;;;;;13.43;62.10;100151.31;10358464;28;20250;-76
2022/05/30 07:48:08;;;;;;;7.72;1.60;;;;;;;13.07;55.37;100162.94;10323370;28;20088;-78
2022/05/30 07:53:25;;;;;;;8.25;1.52;;;;;;;13.16;55.70;100154.78;10369436;28;20065;-78
2022/05/30 07:58:37;;;;;;;6.37;1.30;;;;;;;13.26;54.94;100163.72;10360712;28;20525;-76
2022/05/30 08:03:42;;;;;;;7.53;1.20;;;;;;;13.41;59.13;100152.47;10360951;28;20049;-75
2022/05/30 08:09:10;;;;;;;7.22;1.60;;;;;;;11.99;57.18;100156.69;10363134;28;20049;-77
2022/05/30 08:14:26;;;;;;;4.35;1.40;;;;;;;11.41;55.93;100167.25;10370936;28;20076;-76
2022/05/30 08:19:30;;;;;;;;;;;;;;;11.10;57.37;100174.44;10373315;28;20135;-78
2022/05/30 08:24:52;;;;;;;3.53;1.07;;;;;;;10.81;56.59;100173.28;10372839;28;19925;-77
2022/05/30 08:29:57;;;;;;;3.63;1.02;;;;;;;11.38;56.40;100179.19;10373188;28;20100;-78
2022/05/30 08:35:05;;;;;;;6.22;1.60;;;;;;;12.16;56.22;100182.94;10372304;28;20509;-78
2022/05/30 08:45:34;;;;;;;4.65;1.55;;;;;;;13.38;54.24;100187.84;10377719;28;20065;-76
2022/05/30 08:51:03;;;;;;;4.60;1.27;;;;;;;13.77;50.43;100184.97;10354163;28;20166;-76
2022/05/30 08:56:18;;;;;;;4.03;1.00;;;;;;;13.96;52.11;100178.59;10369682;28;20057;-76
2022/05/30 09:01:50;;;;;;;8.65;1.35;;;;;;;13.96;49.86;100176.78;10350199;28;20054;-76
2022/05/30 09:07:14;;;;;;;7.13;1.10;;;;;;;13.90;51.14;100175.53;10361694;28;20045;-76
2022/05/30 09:12:23;;;;;;;4.85;1.48;;;;;;;13.37;49.38;100176.19;10369020;28;20062;-76
2022/05/30 09:17:45;;;;;;;3.85;1.23;;;;;;;12.90;51.12;100184.25;10359448;28;20045;-76
2022/05/30 09:22:50;;;;;;;3.90;0.82;;;;;;;12.79;50.19;100182.56;10352746;28;20057;-76
2022/05/30 09:27:56;;;;;;;3.80;0.82;;;;;;;12.61;48.87;100192.34;10350440;28;20411;-76
2022/05/30 09:33:29;;;;;;;2.30;0.70;;;;;;;13.69;48.83;100191.13;10352817;28;20111;-76
2022/05/30 09:39:18;;;;;;;4.50;1.20;;;;;;;13.19;47.90;100194.97;10345522;28;20095;-76
2022/05/30 09:44:26;;;;;;;4.28;0.80;;;;;;;12.79;48.58;100201.41;10362257;28;20077;-76
2022/05/30 09:49:50;;;;;;;3.78;1.20;;;;;;;13.62;49.06;100195.41;10356138;28;20042;-75
2022/05/30 09:54:56;;;;;;;2.55;0.90;;;;;;;13.57;48.09;100206.66;10353557;28;20045;-76
2022/05/30 10:00:10;;;;;;;4.88;1.30;;;;;;;13.27;49.06;100203.19;10369427;28;20168;-76
2022/05/30 10:05:35;;;;;;;4.57;0.82;;;;;;;13.23;50.32;100204.47;10345167;28;20065;-76
2022/05/30 10:10:47;;;;;;;1.92;0.90;;;;;;;12.70;51.43;100204.09;10355926;28;20060;-76
2022/05/30 10:15:57;;;;;;;4.25;0.93;;;;;;;12.80;49.85;100215.75;10365242;28;20045;-76
2022/05/30 10:21:10;;;;;;;1.98;1.08;;;;;;;12.75;50.50;100207.22;10368799;28;20498;-76
2022/05/30 10:33:10;;;;;;;1.85;1.05;;;;;;;13.98;49.39;100211.72;10357134;28;20133;-76
2022/05/30 10:38:38;;;;;;;2.13;1.10;;;;;;;14.13;47.87;100205.66;10370071;28;20063;-77
2022/05/30 10:43:53;;;;;;;4.93;1.10;;;;;;;13.91;46.63;100211.47;10339358;28;20041;-77
2022/05/30 10:49:02;;;;;;;3.90;1.10;;;;;;;13.15;47.54;100214.28;10368784;28;20052;-77
2022/05/30 10:54:12;;;;;;;5.63;1.30;;;;;;;13.04;50.00;100220.69;10375363;28;20045;-77
2022/05/30 10:59:41;;;;;;;5.07;1.83;;;;;;;13.79;49.84;100204.56;10371683;28;20037;-77
2022/05/30 11:04:52;;;;;;;5.00;2.20;;;;;;;13.46;48.25;100221.16;10349655;28;20141;-77
2022/05/30 11:10:05;;;;;;;4.45;1.75;;;;;;;12.95;50.97;100233.19;10368844;28;20041;-77
2022/05/30 11:15:25;;;;;;;3.78;1.20;;;;;;;12.77;50.12;100224.13;10369605;28;20119;-77
2022/05/30 11:21:08;;;;;;;4.00;1.02;;;;;;;13.68;49.48;100225.34;10373371;28;20080;-76
2022/05/30 11:26:32;;;;;;;2.97;0.50;;;;;;;13.92;46.92;100235.63;10366632;28;20072;-76
2022/05/30 11:31:46;;;;;;;1.20;0.68;;;;;;;14.53;45.60;100242.25;10339821;28;20038;-76
2022/05/30 11:37:12;;;;;;;2.47;0.60;;;;;;;14.43;45.04;100246.03;10354120;28;20053;-76
2022/05/30 11:42:24;;;;;;;1.80;0.90;;;;;;;15.15;43.39;100249.56;10349329;28;20058;-76
2022/05/30 11:47:33;;;;;;;5.10;1.50;;;;;;;15.51;43.31;100247.63;10374524;28;20056;-76
2022/05/30 11:52:59;;;;;;;3.30;0.60;;;;;;;14.66;44.29;100244.56;10364112;28;20139;-76
2022/05/30 11:58:09;;;;;;;4.13;0.88;;;;;;;14.36;46.80;100243.88;10340725;28;20057;-76
2022/05/30 12:03:47;;;;;;;3.67;1.00;;;;;;;14.52;46.74;100234.31;10356019;28;20064;-76
2022/05/30 12:09:26;;;;;;;3.08;0.95;;;;;;;15.55;46.04;100237.31;10376615;28;20132;-76
2022/05/30 12:15:04;;;;;;;5.60;1.10;;;;;;;17.42;41.18;100236.94;10367088;28;20396;-76
2022/05/30 12:25:48;;;;;;;4.80;0.80;;;;;;;17.02;39.32;100224.22;10362201;28;20129;-76
2022/05/30 12:30:55;;;;;;;4.10;1.13;;;;;;;15.00;41.86;100230.31;10351415;28;20196;-76
2022/05/30 12:36:28;;;;;;;5.57;1.05;;;;;;;15.40;42.80;100242.50;10338579;28;20050;-76
2022/05/30 12:41:34;;;;;;;4.13;1.27;;;;;;;15.14;42.35;100227.06;10339625;28;20042;-76
2022/05/30 12:46:52;;;;;;;3.42;1.20;;;;;;;16.86;39.99;100230.47;10336621;28;20069;-76
2022/05/30 12:52:02;;;;;;;4.00;0.95;;;;;;;16.05;42.14;100225.75;10377544;28;20060;-76
2022/05/30 12:57:12;;;;;;;6.60;1.08;;;;;;;16.93;40.05;100219.81;10378208;28;20120;-77
2022/05/30 13:02:15;;;;;;;0.98;0.75;;;;;;;18.01;37.22;100233.03;10378024;28;20120;-77
2022/05/30 13:07:19;;;;;;;1.75;0.90;;;;;;;18.70;37.32;100236.69;10350495;28;20041;-75
2022/05/30 13:12:52;;;;;;;3.22;0.80;;;;;;;17.86;35.49;100236.47;10336205;28;20061;-76
2022/05/30 13:18:03;;;;;;;2.40;0.95;;;;;;;18.14;38.20;100238.75;10350283;28;20057;-76
2022/05/30 13:23:07;;;;;;;4.45;0.90;;;;;;;16.87;39.27;100242.22;10335184;28;20053;-76
2022/05/30 13:28:20;;;;;;;2.58;1.00;;;;;;;18.33;36.45;100237.47;10337252;28;20046;-76
2022/05/30 13:33:26;;;;;;;2.40;0.70;;;;;;;18.73;36.00;100232.78;10336823;28;20192;-76
2022/05/30 13:38:37;;;;;;;1.33;0.60;;;;;;;18.74;34.61;100238.03;10335739;28;20732;-76
2022/05/30 13:43:41;;;;;;;2.83;0.73;;;;;;;18.59;37.15;100245.28;10336064;28;20117;-76
2022/05/30 13:49:04;;;;;;;0.70;0.50;;;;;;;18.21;36.01;100244.31;10333386;28;20056;-76
2022/05/30 13:54:09;;;;;;;5.13;0.93;;;;;;;18.49;37.31;100236.53;10334885;28;20045;-76
2022/05/30 13:59:30;;;;;;;3.38;1.20;;;;;;;17.16;38.16;100244.41;10335611;28;20199;-76
2022/05/30 14:04:59;;;;;;;1.10;0.60;;;;;;;17.62;37.30;100241.97;10343645;28;20034;-76
2022/05/30 14:10:06;;;;;;;1.50;0.60;;;;;;;17.56;38.20;100246.22;10372094;28;20538;-76
2022/05/30 14:15:14;;;;;;;1.63;0.73;;;;;;;18.52;38.10;100239.72;10334271;28;20118;-77
2022/05/30 14:20:32;;;;;;;2.28;0.60;;;;;;;18.58;36.58;100230.84;10332056;28;20045;-76
2022/05/30 14:25:39;;;;;;;2.10;1.00;;;;;;;19.46;36.56;100234.88;10343990;28;20094;-76
2022/05/30 14:30:49;;;;;;;;;;;;;;;19.89;35.35;100237.00;10365501;28;20662;-76
2022/05/30 14:35:54;;;;;;;3.40;0.70;;;;;;;20.01;35.30;100243.66;10362330;28;19968;-76
2022/05/30 14:41:01;;;;;;;2.17;0.60;;;;;;;20.14;34.60;100240.25;10354107;28;20180;-76
2022/05/30 14:46:17;;;;;;;3.33;0.80;;;;;;;20.33;34.85;100234.22;10350042;28;20115;-75
2022/05/30 14:51:29;;;;;;;3.58;0.60;;;;;;;19.95;35.39;100235.41;10359182;28;20143;-75
2022/05/30 14:56:32;;;;;;;3.17;0.60;;;;;;;18.67;35.16;100233.50;10351653;28;20775;-75
2022/05/30 15:01:38;;;;;;;1.48;0.63;;;;;;;18.13;36.75;100247.94;10345834;28;20893;-76
2022/05/30 15:06:43;;;;;;;2.72;0.70;;;;;;;17.51;37.83;100245.06;10345034;28;20050;-75
2022/05/30 15:11:46;;;;;;;6.68;0.70;;;;;;;17.51;38.89;100245.91;10362299;28;20203;-76
2022/05/30 15:16:51;;;;;;;3.60;0.60;;;;;;;16.67;39.91;100247.09;10361539;28;20056;-76
2022/05/30 15:21:57;;;;;;;1.58;0.60;;;;;;;16.18;38.37;100246.94;10361763;28;20136;-76
2022/05/30 15:27:02;;;;;;;0.43;0.35;;;;;;;15.56;40.30;100249.88;10358804;28;20498;-76
2022/05/30 15:32:10;;;;;;;1.05;0.40;;;;;;;16.59;40.25;100247.91;10357578;28;20081;-76
2022/05/30 15:37:15;;;;;;;3.00;0.50;;;;;;;17.81;38.00;100249.72;10360083;28;20046;-76
2022/05/30 15:42:20;;;;;;;2.83;0.77;;;;;;;18.41;36.92;100252.91;10362131;28;20046;-76
2022/05/30 15:47:26;;;;;;;1.42;0.40;;;;;;;18.71;35.92;100243.84;10358711;28;20041;-75
2022/05/30 15:57:17;;;;;;;2.40;0.50;;;;;;;18.53;35.92;100238.69;10357532;28;20112;-78
2022/05/30 15:57:55;;;;;;;1.00;0.50;;;;;;;17.40;36.61;100240.84;10364208;28;20126;-76
2022/05/30 16:02:59;;;;;;;3.83;0.30;;;;;;;16.59;38.77;100250.63;10348878;28;20066;-77
2022/05/30 16:08:11;;;;;;;1.52;0.70;;;;;;;16.81;39.14;100250.00;10358307;28;20057;-76
2022/05/30 16:13:16;;;;;;;1.80;0.60;;;;;;;16.70;39.80;100241.31;10364616;28;20088;-76
2022/05/30 16:18:21;;;;;;;1.40;0.50;;;;;;;15.72;40.75;100247.25;10365324;28;20145;-81
2022/05/30 16:23:26;;;;;;;1.48;0.68;;;;;;;16.30;41.06;100242.94;10364438;28;20061;-78
2022/05/30 16:28:29;;;;;;;0.80;0.55;;;;;;;16.18;41.42;100238.81;10377050;28;20502;-79
2022/05/30 16:33:33;;;;;;;4.18;0.90;;;;;;;15.65;43.19;100241.63;10359993;28;20048;-77
2022/05/30 16:38:36;;;;;;;2.92;0.70;;;;;;;16.01;42.84;100244.16;10365797;28;20037;-78
2022/05/30 16:43:39;;;;;;;1.40;0.40;;;;;;;16.99;42.37;100243.56;10369704;28;20052;-78
2022/05/30 16:48:45;;;;;;;0.90;0.60;;;;;;;17.96;40.86;100240.84;10371344;28;20061;-78
2022/05/30 16:53:48;;;;;;;2.92;0.90;;;;;;;17.42;38.92;100241.53;10368014;28;20064;-78
2022/05/30 16:58:52;;;;;;;2.00;0.65;;;;;;;17.76;40.00;100245.84;10378958;28;20041;-78
2022/05/30 17:03:56;;;;;;;5.82;1.50;;;;;;;19.17;36.65;100232.09;10376585;28;20105;-78
2022/05/30 17:09:00;;;;;;;0.95;0.85;;;;;;;18.98;38.41;100237.03;10375805;28;20057;-79
2022/05/30 17:14:03;;;;;;;4.88;1.13;;;;;;;19.50;37.42;100229.06;10364246;28;20119;-78
2022/05/30 17:19:08;;;;;;;1.08;0.60;;;;;;;22.98;34.15;100228.81;10357617;28;20053;-77
2022/05/30 17:24:12;;;;;;;0.88;0.70;;;;;;;27.70;26.89;100226.59;10354070;28;20046;-76
2022/05/30 17:29:20;;;;;;;2.63;0.60;;;;;;;30.34;23.40;100218.69;10357390;28;20518;-76
2022/05/30 17:34:24;;;;;;;1.13;0.50;;;;;;;29.93;22.39;100224.53;10356032;28;20093;-78
2022/05/30 17:39:29;;;;;;;4.30;0.80;;;;;;;27.12;25.59;100219.94;10364952;28;20045;-77
2022/05/30 17:44:33;;;;;;;2.00;1.00;;;;;;;26.65;25.46;100228.06;10365585;28;20057;-77
2022/05/30 17:49:43;;;;;;;3.78;0.80;;;;;;;25.19;27.18;100230.56;10350709;28;20060;-78
2022/05/30 17:54:48;;;;;;;2.92;0.60;;;;;;;21.38;31.62;100231.88;10352635;28;20056;-78
2022/05/30 17:59:51;;;;;;;1.38;0.63;;;;;;;18.98;35.11;100234.31;10358710;28;20066;-77
2022/05/30 18:04:56;;;;;;;3.05;0.82;;;;;;;17.73;37.63;100238.88;10359660;28;20145;-77
2022/05/30 18:10:07;;;;;;;1.40;0.70;;;;;;;16.78;40.01;100246.75;10363300;28;20041;-77
2022/05/30 18:15:23;;;;;;;3.30;0.75;;;;;;;16.05;42.34;100245.53;10363957;28;20783;-77
2022/05/30 18:20:31;;;;;;;2.80;0.90;;;;;;;15.62;43.22;100255.47;10372454;28;20179;-79
2022/05/30 18:25:36;;;;;;;1.10;0.68;;;;;;;15.30;44.33;100260.66;10374829;28;20073;-77
2022/05/30 18:30:42;;;;;;;1.38;0.70;;;;;;;14.99;45.78;100261.09;10371113;28;20250;-78
2022/05/30 18:35:50;;;;;;;1.05;0.80;;;;;;;14.67;47.00;100262.47;10367410;28;20195;-77
2022/05/30 18:41:00;;;;;;;2.35;0.82;;;;;;;14.36;47.74;100273.63;10369253;28;20090;-80
2022/05/30 18:46:08;;;;;;;2.28;0.70;;;;;;;14.13;48.57;100269.66;10384173;28;20065;-76
2022/05/30 18:51:13;;;;;;;3.30;0.80;;;;;;;13.94;49.54;100273.28;10381805;28;20195;-76
2022/05/30 18:56:18;;;;;;;2.35;0.88;;;;;;;13.71;50.83;100284.47;10377939;28;20758;-76
2022/05/30 19:01:25;;;;;;;1.42;0.50;;;;;;;13.57;50.91;100286.75;10372019;28;20065;-77
2022/05/30 19:06:30;;;;;;;3.47;0.90;;;;;;;13.47;51.02;100293.03;10364293;28;20664;-78
2022/05/30 19:11:42;;;;;;;2.08;1.02;;;;;;;13.35;51.67;100302.25;10360281;28;20041;-77
2022/05/30 19:22:09;;;;;;;;;;;;;;;12.95;52.16;100295.19;10377710;28;21337;-78
2022/05/30 19:27:13;;;;;;;2.08;0.98;;;;;;;12.80;51.77;100292.06;10376726;28;19925;-78
2022/05/30 19:32:17;;;;;;;3.08;1.08;;;;;;;12.71;51.66;100302.84;10382988;28;20037;-78
2022/05/30 19:37:21;;;;;;;3.40;1.30;;;;;;;12.59;51.64;100310.22;10387714;28;20099;-78
2022/05/30 19:42:24;;;;;;;4.18;1.42;;;;;;;12.47;52.16;100324.78;10381688;28;20765;-78
2022/05/30 19:47:27;;;;;;;4.63;1.52;;;;;;;12.34;52.61;100335.78;10369712;28;20134;-78
2022/05/30 19:52:31;;;;;;;;;;;;;;;12.14;52.35;100330.31;10371256;28;20099;-78
2022/05/30 19:57:33;;;;;;;5.45;1.20;;;;;;;12.07;52.84;100339.94;10365881;28;19925;-78
2022/05/30 20:02:36;;;;;;;;;;;;;;;12.07;52.85;100339.94;10374985;28;20703;-79
2022/05/30 20:07:41;;;;;;;2.30;1.08;;;;;;;12.00;52.92;100340.59;10363663;28;19997;-78
2022/05/30 20:12:50;;;;;;;2.90;1.00;;;;;;;11.95;53.15;100346.38;10370390;28;20052;-78
2022/05/30 20:17:53;;;;;;;1.10;0.80;;;;;;;11.95;53.26;100346.38;10368977;28;20125;-77
2022/05/30 20:22:58;;;;;;;;;;;;;;;11.84;53.24;100347.31;10369106;28;20092;-77
2022/05/30 20:34:18;;;;;;;3.85;1.10;;;;;;;11.41;55.39;100351.03;10475061;28;21255;-75
2022/05/30 20:39:21;;;;;;;8.52;1.85;;;;;;;11.59;54.66;100351.28;10485838;28;20114;-76
2022/05/30 20:44:24;;;;;;;4.18;1.45;;;;;;;11.51;55.35;100356.47;10469896;28;20174;-77
2022/05/30 20:49:28;;;;;;;6.90;1.60;;;;;;;11.44;55.72;100360.69;10472546;28;20076;-75
2022/05/30 20:54:32;;;;;;;4.05;1.85;;;;;;;11.41;56.08;100351.03;10478495;28;20115;-77
2022/05/30 20:59:35;;;;;;;5.32;2.63;;;;;;;11.39;56.02;100363.75;10441689;28;20527;-78
2022/05/30 21:04:39;;;;;;;;;;;;;;;11.34;56.42;100357.91;10429510;28;20155;-77
2022/05/30 21:09:42;;;;;;;4.50;2.85;;;;;;;11.34;56.30;100355.22;10432510;28;19931;-77
2022/05/30 21:14:44;;;;;;;;;;;;;;;11.35;56.23;100364.97;10430435;28;21221;-76
2022/05/30 21:19:53;;;;;;;5.32;2.60;;;;;;;11.30;56.72;100359.16;10430815;28;20059;-77
2022/05/30 21:24:56;;;;;;;2.40;2.20;;;;;;;11.26;57.11;100360.38;10426754;28;20187;-76
2022/05/30 21:30:00;;;;;;;5.10;2.42;;;;;;;11.16;57.40;100363.00;10434208;28;20276;-78
2022/05/30 21:35:06;;;;;;;6.03;2.72;;;;;;;10.97;57.45;100358.28;10428811;28;20053;-77
2022/05/30 21:40:11;;;;;;;6.28;2.92;;;;;;;10.82;58.43;100367.59;10445279;28;20044;-76
2022/05/30 21:45:14;;;;;;;3.65;2.60;;;;;;;10.66;59.32;100361.78;10425874;28;20061;-76
2022/05/30 21:50:29;;;;;;;7.95;2.78;;;;;;;10.57;59.66;100366.91;10411169;28;20052;-77
2022/05/30 21:55:34;;;;;;;5.63;3.22;;;;;;;10.49;59.47;100368.53;10420178;28;20175;-77
2022/05/30 22:00:41;;;;;;;3.25;2.80;;;;;;;10.22;60.09;100376.97;10420839;28;20498;-78
2022/05/30 22:05:48;;;;;;;3.65;2.55;;;;;;;10.02;60.85;100375.88;10419364;28;20162;-77
2022/05/30 22:10:50;;;;;;;5.95;2.53;;;;;;;10.03;61.28;100375.72;10417135;28;20454;-77
2022/05/30 22:15:53;;;;;;;;;;;;;;;10.10;61.50;100373.44;10420296;28;20112;-77
2022/05/30 22:20:58;;;;;;;5.45;2.63;;;;;;;10.07;61.05;100379.91;10420253;28;20332;-76
2022/05/30 22:26:05;;;;;;;7.15;5.05;;;;;;;10.06;61.01;100377.31;10415395;28;20495;-75
2022/05/30 22:31:08;;;;;;;4.55;3.45;;;;;;;10.12;61.18;100383.06;10416189;28;20524;-76
2022/05/30 22:36:13;;;;;;;7.25;3.40;;;;;;;10.18;61.18;100384.41;10418396;28;20053;-76
2022/05/30 22:41:16;;;;;;;6.50;3.63;;;;;;;10.11;61.35;100375.13;10415155;28;20051;-76
2022/05/30 22:46:18;;;;;;;;;;;;;;;10.10;61.33;100379.66;10416592;28;20133;-76
2022/05/30 22:51:25;;;;;;;;;;;;;;;10.06;61.38;100378.16;10413757;28;20304;-76
2022/05/30 22:56:28;;;;;;;4.40;3.20;;;;;;;10.06;61.45;100380.84;10415988;28;19931;-76
2022/05/30 23:01:32;;;;;;;4.85;2.78;;;;;;;9.97;61.62;100381.59;10417733;28;20180;-77
2022/05/30 23:06:36;;;;;;;3.65;2.78;;;;;;;9.95;61.79;100378.16;10431047;28;20060;-76
2022/05/30 23:11:39;;;;;;;5.90;2.70;;;;;;;9.91;61.86;100374.88;10417165;28;20045;-76
2022/05/30 23:16:44;;;;;;;;;;;;;;;9.80;62.32;100376.66;10418350;28;21301;-76
2022/05/30 23:21:50;;;;;;;3.17;2.88;;;;;;;9.79;62.47;100374.94;10408990;28;20678;-76
2022/05/30 23:26:53;;;;;;;3.15;2.65;;;;;;;9.76;62.72;100376.03;10417831;28;20052;-75
2022/05/30 23:31:56;;;;;;;4.43;3.20;;;;;;;9.66;62.97;100372.38;10412617;28;20048;-76
2022/05/30 23:37:00;;;;;;;5.00;3.30;;;;;;;9.60;63.08;100367.47;10411368;28;20500;-76
2022/05/30 23:47:26;;;;;;;4.72;3.17;;;;;;;9.40;63.76;100369.00;10425740;28;20055;-75
2022/05/30 23:52:30;;;;;;;5.90;3.10;;;;;;;9.33;63.93;100367.78;10416574;28;20760;-76
2022/05/30 23:57:34;;;;;;;5.43;3.22;;;;;;;9.33;64.31;100371.31;10414873;28;20057;-76
